sensor_id;sensor_type;location;lat;lon;timestamp;pressure;altitude;pressure_sealevel;temperature;humidity
15405;BME280;7801;48.124;11.590;2024-02-23T00:01:47;93556.91;;;8.44;100.00
15405;BME280;7801;48.124;11.590;2024-02-23T00:04:14;93571.13;;;8.31;100.00
15405;BME280;7801;48.124;11.590;2024-02-23T00:06:41;93566.16;;;8.29;100.00
15405;BME280;7801;48.124;11.590;2024-02-23T00:09:07;93566.16;;;8.29;100.00
15405;BME280;7801;48.124;11.590;2024-02-23T00:11:33;93570.34;;;8.30;100.00
15405;BME280;7801;48.124;11.590;2024-02-23T00:14:06;93569.31;;;8.22;100.00
15405;BME280;7801;48.124;11.590;2024-02-23T00:16:38;93572.31;;;8.12;100.00
15405;BME280;7801;48.124;11.590;2024-02-23T00:19:06;93569.03;;;8.15;100.00
15405;BME280;7801;48.124;11.590;2024-02-23T00:21:33;93569.66;;;8.12;100.00
15405;BME280;7801;48.124;11.590;2024-02-23T00:23:59;93578.50;;;8.16;100.00
15405;BME280;7801;48.124;11.590;2024-02-23T00:26:25;93577.91;;;8.11;100.00
15405;BME280;7801;48.124;11.590;2024-02-23T00:28:55;93581.00;;;8.13;100.00
15405;BME280;7801;48.124;11.590;2024-02-23T00:31:22;93584.41;;;8.13;100.00
15405;BME280;7801;48.124;11.590;2024-02-23T00:33:49;93569.88;;;8.07;100.00
15405;BME280;7801;48.124;11.590;2024-02-23T00:36:17;93569.56;;;8.09;100.00
15405;BME280;7801;48.124;11.590;2024-02-23T00:38:45;93583.00;;;8.16;100.00
15405;BME280;7801;48.124;11.590;2024-02-23T00:41:11;93574.06;;;8.08;100.00
15405;BME280;7801;48.124;11.590;2024-02-23T00:43:41;93582.16;;;8.03;100.00
15405;BME280;7801;48.124;11.590;2024-02-23T00:46:09;93578.22;;;7.88;100.00
15405;BME280;7801;48.124;11.590;2024-02-23T00:48:35;93579.81;;;7.81;100.00
15405;BME280;7801;48.124;11.590;2024-02-23T00:51:02;93589.81;;;7.96;100.00
15405;BME280;7801;48.124;11.590;2024-02-23T00:53:30;93582.13;;;7.82;100.00
15405;BME280;7801;48.124;11.590;2024-02-23T00:55:59;93594.69;;;7.85;100.00
15405;BME280;7801;48.124;11.590;2024-02-23T00:58:25;93593.72;;;7.90;100.00
15405;BME280;7801;48.124;11.590;2024-02-23T01:00:51;93594.38;;;7.87;100.00
15405;BME280;7801;48.124;11.590;2024-02-23T01:03:18;93596.41;;;7.81;100.00
15405;BME280;7801;48.124;11.590;2024-02-23T01:05:43;93593.72;;;7.90;100.00
15405;BME280;7801;48.124;11.590;2024-02-23T01:08:10;93607.28;;;7.80;100.00
15405;BME280;7801;48.124;11.590;2024-02-23T01:10:35;93599.06;;;7.73;100.00
15405;BME280;7801;48.124;11.590;2024-02-23T01:13:00;93602.81;;;7.72;100.00
15405;BME280;7801;48.124;11.590;2024-02-23T01:15:28;93605.72;;;7.79;100.00
15405;BME280;7801;48.124;11.590;2024-02-23T01:17:54;93615.75;;;7.94;100.00
15405;BME280;7801;48.124;11.590;2024-02-23T01:20:22;93614.25;;;7.84;100.00
15405;BME280;7801;48.124;11.590;2024-02-23T01:22:47;93619.41;;;7.81;100.00
15405;BME280;7801;48.124;11.590;2024-02-23T01:25:13;93614.44;;;7.79;100.00
15405;BME280;7801;48.124;11.590;2024-02-23T01:27:42;93634.59;;;7.84;100.00
15405;BME280;7801;48.124;11.590;2024-02-23T01:30:11;93644.84;;;7.85;100.00
15405;BME280;7801;48.124;11.590;2024-02-23T01:32:36;93637.66;;;7.94;100.00
15405;BME280;7801;48.124;11.590;2024-02-23T01:35:07;93635.63;;;7.91;100.00
15405;BME280;7801;48.124;11.590;2024-02-23T01:37:34;93641.44;;;7.85;100.00
15405;BME280;7801;48.124;11.590;2024-02-23T01:40:00;93642.38;;;7.80;100.00
15405;BME280;7801;48.124;11.590;2024-02-23T01:42:27;93657.00;;;7.69;100.00
15405;BME280;7801;48.124;11.590;2024-02-23T01:44:53;93656.25;;;7.69;100.00
15405;BME280;7801;48.124;11.590;2024-02-23T01:47:24;93653.72;;;7.81;100.00
15405;BME280;7801;48.124;11.590;2024-02-23T01:49:51;93647.34;;;7.73;100.00
15405;BME280;7801;48.124;11.590;2024-02-23T01:52:17;93652.94;;;7.72;100.00
15405;BME280;7801;48.124;11.590;2024-02-23T01:54:44;93635.94;;;7.61;100.00
15405;BME280;7801;48.124;11.590;2024-02-23T01:57:12;93647.56;;;7.59;100.00
15405;BME280;7801;48.124;11.590;2024-02-23T01:59:38;93642.75;;;7.62;100.00
15405;BME280;7801;48.124;11.590;2024-02-23T02:02:05;93646.59;;;7.73;100.00
15405;BME280;7801;48.124;11.590;2024-02-23T02:04:31;93638.88;;;7.59;100.00
15405;BME280;7801;48.124;11.590;2024-02-23T02:07:00;93643.22;;;7.64;100.00
15405;BME280;7801;48.124;11.590;2024-02-23T02:09:27;93644.72;;;7.73;100.00
15405;BME280;7801;48.124;11.590;2024-02-23T02:11:53;93644.00;;;7.55;100.00
15405;BME280;7801;48.124;11.590;2024-02-23T02:14:20;93637.94;;;7.64;100.00
15405;BME280;7801;48.124;11.590;2024-02-23T02:16:45;93643.38;;;7.67;100.00
15405;BME280;7801;48.124;11.590;2024-02-23T02:19:12;93648.66;;;7.58;100.00
15405;BME280;7801;48.124;11.590;2024-02-23T02:21:38;93648.56;;;7.46;100.00
15405;BME280;7801;48.124;11.590;2024-02-23T02:24:04;93655.66;;;7.54;100.00
15405;BME280;7801;48.124;11.590;2024-02-23T02:26:30;93660.63;;;7.56;100.00
15405;BME280;7801;48.124;11.590;2024-02-23T02:28:55;93663.56;;;7.63;100.00
15405;BME280;7801;48.124;11.590;2024-02-23T02:31:22;93662.63;;;7.59;100.00
15405;BME280;7801;48.124;11.590;2024-02-23T02:33:49;93677.69;;;7.58;100.00
15405;BME280;7801;48.124;11.590;2024-02-23T02:36:15;93674.75;;;7.51;100.00
15405;BME280;7801;48.124;11.590;2024-02-23T02:38:42;93683.13;;;7.53;100.00
15405;BME280;7801;48.124;11.590;2024-02-23T02:41:08;93681.25;;;7.54;100.00
15405;BME280;7801;48.124;11.590;2024-02-23T02:43:34;93688.41;;;7.53;100.00
15405;BME280;7801;48.124;11.590;2024-02-23T02:45:59;93679.25;;;7.59;100.00
15405;BME280;7801;48.124;11.590;2024-02-23T02:48:24;93680.38;;;7.41;100.00
15405;BME280;7801;48.124;11.590;2024-02-23T02:50:50;93681.75;;;7.30;100.00
15405;BME280;7801;48.124;11.590;2024-02-23T02:53:16;93689.56;;;7.27;100.00
15405;BME280;7801;48.124;11.590;2024-02-23T02:55:43;93703.34;;;7.32;100.00
15405;BME280;7801;48.124;11.590;2024-02-23T02:58:11;93698.22;;;7.36;100.00
15405;BME280;7801;48.124;11.590;2024-02-23T03:00:38;93693.56;;;7.41;100.00
15405;BME280;7801;48.124;11.590;2024-02-23T03:03:04;93691.38;;;7.43;100.00
15405;BME280;7801;48.124;11.590;2024-02-23T03:05:31;93683.81;;;7.24;100.00
15405;BME280;7801;48.124;11.590;2024-02-23T03:07:56;93689.69;;;7.39;100.00
15405;BME280;7801;48.124;11.590;2024-02-23T03:10:23;93687.97;;;7.34;100.00
15405;BME280;7801;48.124;11.590;2024-02-23T03:12:50;93694.34;;;7.24;100.00
15405;BME280;7801;48.124;11.590;2024-02-23T03:15:15;93681.31;;;7.37;100.00
15405;BME280;7801;48.124;11.590;2024-02-23T03:17:41;93692.63;;;7.37;100.00
15405;BME280;7801;48.124;11.590;2024-02-23T03:20:08;93687.97;;;7.34;100.00
15405;BME280;7801;48.124;11.590;2024-02-23T03:22:35;93684.13;;;7.14;100.00
15405;BME280;7801;48.124;11.590;2024-02-23T03:25:02;93698.25;;;7.27;100.00
15405;BME280;7801;48.124;11.590;2024-02-23T03:27:38;93692.97;;;7.10;100.00
15405;BME280;7801;48.124;11.590;2024-02-23T03:30:05;93700.25;;;7.13;100.00
15405;BME280;7801;48.124;11.590;2024-02-23T03:32:36;93700.09;;;7.01;100.00
15405;BME280;7801;48.124;11.590;2024-02-23T03:35:07;93694.97;;;6.87;100.00
15405;BME280;7801;48.124;11.590;2024-02-23T03:37:37;93682.13;;;7.03;100.00
15405;BME280;7801;48.124;11.590;2024-02-23T03:40:04;93689.41;;;7.06;100.00
15405;BME280;7801;48.124;11.590;2024-02-23T03:42:30;93687.22;;;7.08;100.00
15405;BME280;7801;48.124;11.590;2024-02-23T03:44:57;93684.59;;;7.16;100.00
15405;BME280;7801;48.124;11.590;2024-02-23T03:47:24;93691.41;;;7.09;100.00
15405;BME280;7801;48.124;11.590;2024-02-23T03:49:50;93694.50;;;7.11;100.00
15405;BME280;7801;48.124;11.590;2024-02-23T03:52:17;93690.50;;;7.05;100.00
15405;BME280;7801;48.124;11.590;2024-02-23T03:54:46;93689.84;;;7.16;100.00
15405;BME280;7801;48.124;11.590;2024-02-23T03:57:12;93696.22;;;7.15;100.00
15405;BME280;7801;48.124;11.590;2024-02-23T03:59:37;93712.22;;;7.02;100.00
15405;BME280;7801;48.124;11.590;2024-02-23T04:02:04;93715.78;;;7.06;100.00
15405;BME280;7801;48.124;11.590;2024-02-23T04:04:29;93702.12;;;7.04;100.00
15405;BME280;7801;48.124;11.590;2024-02-23T04:06:57;93717.59;;;6.88;100.00
15405;BME280;7801;48.124;11.590;2024-02-23T04:09:22;93706.13;;;6.75;100.00
15405;BME280;7801;48.124;11.590;2024-02-23T04:11:48;93705.22;;;6.88;100.00
15405;BME280;7801;48.124;11.590;2024-02-23T04:14:15;93710.66;;;7.01;100.00
15405;BME280;7801;48.124;11.590;2024-02-23T04:16:41;93707.09;;;6.97;100.00
15405;BME280;7801;48.124;11.590;2024-02-23T04:19:08;93702.44;;;7.02;100.00
15405;BME280;7801;48.124;11.590;2024-02-23T04:21:35;93717.16;;;6.95;100.00
15405;BME280;7801;48.124;11.590;2024-02-23T04:24:01;93709.72;;;6.97;100.00
15405;BME280;7801;48.124;11.590;2024-02-23T04:26:27;93704.91;;;6.81;100.00
15405;BME280;7801;48.124;11.590;2024-02-23T04:28:53;93718.09;;;6.81;100.00
15405;BME280;7801;48.124;11.590;2024-02-23T04:31:18;93711.88;;;6.95;100.00
15405;BME280;7801;48.124;11.590;2024-02-23T04:33:43;93708.16;;;6.87;100.00
15405;BME280;7801;48.124;11.590;2024-02-23T04:36:08;93710.31;;;6.76;100.00
15405;BME280;7801;48.124;11.590;2024-02-23T04:38:35;93718.22;;;6.76;100.00
15405;BME280;7801;48.124;11.590;2024-02-23T04:41:03;93719.78;;;6.77;100.00
15405;BME280;7801;48.124;11.590;2024-02-23T04:43:32;93726.75;;;6.73;100.00
15405;BME280;7801;48.124;11.590;2024-02-23T04:46:00;93717.28;;;6.72;100.00
15405;BME280;7801;48.124;11.590;2024-02-23T04:48:31;93717.91;;;6.69;100.00
15405;BME280;7801;48.124;11.590;2024-02-23T04:50:59;93721.28;;;6.52;100.00
15405;BME280;7801;48.124;11.590;2024-02-23T04:53:24;93726.13;;;6.59;100.00
15405;BME280;7801;48.124;11.590;2024-02-23T04:55:50;93720.72;;;6.64;100.00
15405;BME280;7801;48.124;11.590;2024-02-23T04:58:18;93728.91;;;6.63;100.00
15405;BME280;7801;48.124;11.590;2024-02-23T05:00:46;93726.72;;;6.56;100.00
15405;BME280;7801;48.124;11.590;2024-02-23T05:03:11;93732.59;;;6.53;100.00
15405;BME280;7801;48.124;11.590;2024-02-23T05:05:38;93732.78;;;6.74;100.00
15405;BME280;7801;48.124;11.590;2024-02-23T05:08:03;93728.75;;;6.59;100.00
15405;BME280;7801;48.124;11.590;2024-02-23T05:10:33;93712.13;;;6.50;100.00
15405;BME280;7801;48.124;11.590;2024-02-23T05:12:58;93709.03;;;6.48;100.00
15405;BME280;7801;48.124;11.590;2024-02-23T05:15:24;93705.53;;;6.13;100.00
15405;BME280;7801;48.124;11.590;2024-02-23T05:17:49;93698.28;;;6.18;100.00
15405;BME280;7801;48.124;11.590;2024-02-23T05:20:14;93704.94;;;6.25;100.00
15405;BME280;7801;48.124;11.590;2024-02-23T05:22:40;93710.59;;;6.40;100.00
15405;BME280;7801;48.124;11.590;2024-02-23T05:25:06;93706.56;;;6.43;100.00
15405;BME280;7801;48.124;11.590;2024-02-23T05:27:33;93722.56;;;6.64;100.00
15405;BME280;7801;48.124;11.590;2024-02-23T05:29:58;93719.87;;;6.38;100.00
15405;BME280;7801;48.124;11.590;2024-02-23T05:32:24;93717.88;;;6.43;100.00
15405;BME280;7801;48.124;11.590;2024-02-23T05:34:49;93717.28;;;6.64;100.00
15405;BME280;7801;48.124;11.590;2024-02-23T05:37:18;93723.34;;;6.90;100.00
15405;BME280;7801;48.124;11.590;2024-02-23T05:39:44;93719.78;;;6.77;100.00
15405;BME280;7801;48.124;11.590;2024-02-23T05:42:14;93726.16;;;6.85;100.00
15405;BME280;7801;48.124;11.590;2024-02-23T05:44:39;93720.25;;;7.14;100.00
15405;BME280;7801;48.124;11.590;2024-02-23T05:47:08;93727.84;;;7.15;100.00
15405;BME280;7801;48.124;11.590;2024-02-23T05:49:33;93725.84;;;7.38;100.00
15405;BME280;7801;48.124;11.590;2024-02-23T05:52:00;93730.97;;;7.26;100.00
15405;BME280;7801;48.124;11.590;2024-02-23T05:54:25;93731.09;;;7.38;100.00
15405;BME280;7801;48.124;11.590;2024-02-23T05:56:50;93736.06;;;7.14;100.00
15405;BME280;7801;48.124;11.590;2024-02-23T05:59:16;93738.72;;;6.97;100.00
15405;BME280;7801;48.124;11.590;2024-02-23T06:01:41;93743.50;;;6.95;100.00
15405;BME280;7801;48.124;11.590;2024-02-23T06:04:06;93744.13;;;7.09;100.00
15405;BME280;7801;48.124;11.590;2024-02-23T06:06:32;93746.47;;;7.19;100.00
15405;BME280;7801;48.124;11.590;2024-02-23T06:08:57;93752.69;;;7.14;100.00
15405;BME280;7801;48.124;11.590;2024-02-23T06:11:22;93755.78;;;7.25;100.00
15405;BME280;7801;48.124;11.590;2024-02-23T06:13:48;93753.75;;;7.39;100.00
15405;BME280;7801;48.124;11.590;2024-02-23T06:16:13;93759.94;;;7.09;100.00
15405;BME280;7801;48.124;11.590;2024-02-23T06:18:39;93764.59;;;6.95;100.00
15405;BME280;7801;48.124;11.590;2024-02-23T06:21:14;93764.75;;;6.89;100.00
15405;BME280;7801;48.124;11.590;2024-02-23T06:23:39;93765.53;;;6.99;100.00
15405;BME280;7801;48.124;11.590;2024-02-23T06:26:05;93775.88;;;6.69;100.00
15405;BME280;7801;48.124;11.590;2024-02-23T06:28:30;93781.00;;;6.74;100.00
15405;BME280;7801;48.124;11.590;2024-02-23T06:30:56;93788.59;;;6.76;100.00
15405;BME280;7801;48.124;11.590;2024-02-23T06:33:21;93781.81;;;6.92;100.00
15405;BME280;7801;48.124;11.590;2024-02-23T06:35:47;93781.41;;;6.50;100.00
15405;BME280;7801;48.124;11.590;2024-02-23T06:38:12;93780.00;;;6.53;100.00
15405;BME280;7801;48.124;11.590;2024-02-23T06:40:38;93792.28;;;6.66;100.00
15405;BME280;7801;48.124;11.590;2024-02-23T06:43:04;93791.19;;;6.67;100.00
15405;BME280;7801;48.124;11.590;2024-02-23T06:45:29;93787.22;;;6.78;100.00
15405;BME280;7801;48.124;11.590;2024-02-23T06:47:54;93781.59;;;6.71;100.00
15405;BME280;7801;48.124;11.590;2024-02-23T06:50:20;93780.87;;;6.88;100.00
15405;BME280;7801;48.124;11.590;2024-02-23T06:52:46;93779.50;;;6.99;100.00
15405;BME280;7801;48.124;11.590;2024-02-23T06:55:13;93770.38;;;7.05;100.00
15405;BME280;7801;48.124;11.590;2024-02-23T06:57:39;93773.31;;;7.21;100.00
15405;BME280;7801;48.124;11.590;2024-02-23T07:00:05;93766.31;;;7.51;100.00
15405;BME280;7801;48.124;11.590;2024-02-23T07:02:30;93773.94;;;7.18;100.00
15405;BME280;7801;48.124;11.590;2024-02-23T07:04:59;93783.88;;;7.21;100.00
15405;BME280;7801;48.124;11.590;2024-02-23T07:07:24;93790.69;;;7.13;100.00
15405;BME280;7801;48.124;11.590;2024-02-23T07:09:50;93785.72;;;8.95;100.00
15405;BME280;7801;48.124;11.590;2024-02-23T07:12:17;93773.97;;;11.58;100.00
15405;BME280;7801;48.124;11.590;2024-02-23T07:14:42;93786.78;;;12.56;100.00
15405;BME280;7801;48.124;11.590;2024-02-23T07:17:07;93785.81;;;13.27;100.00
15405;BME280;7801;48.124;11.590;2024-02-23T07:19:33;93784.50;;;14.14;95.43
15405;BME280;7801;48.124;11.590;2024-02-23T07:21:58;93793.88;;;14.69;91.92
15405;BME280;7801;48.124;11.590;2024-02-23T07:24:24;93801.78;;;14.62;86.41
15405;BME280;7801;48.124;11.590;2024-02-23T07:26:49;93808.28;;;13.45;59.98
15405;BME280;7801;48.124;11.590;2024-02-23T07:29:14;93818.84;;;11.76;61.81
15405;BME280;7801;48.124;11.590;2024-02-23T07:31:40;93825.50;;;10.81;66.61
15405;BME280;7801;48.124;11.590;2024-02-23T07:34:05;93827.19;;;9.95;69.73
15405;BME280;7801;48.124;11.590;2024-02-23T07:36:30;93823.00;;;8.81;73.31
15405;BME280;7801;48.124;11.590;2024-02-23T07:38:57;93837.13;;;8.85;74.75
15405;BME280;7801;48.124;11.590;2024-02-23T07:41:22;93835.44;;;8.43;77.01
15405;BME280;7801;48.124;11.590;2024-02-23T07:43:47;93838.41;;;8.15;78.17
15405;BME280;7801;48.124;11.590;2024-02-23T07:46:13;93837.66;;;8.15;78.36
15405;BME280;7801;48.124;11.590;2024-02-23T07:48:38;93831.81;;;7.57;80.82
15405;BME280;7801;48.124;11.590;2024-02-23T07:51:05;93816.44;;;7.51;81.58
15405;BME280;7801;48.124;11.590;2024-02-23T07:53:30;93819.66;;;8.00;79.92
15405;BME280;7801;48.124;11.590;2024-02-23T07:55:56;93819.87;;;7.60;80.67
15405;BME280;7801;48.124;11.590;2024-02-23T07:58:24;93818.16;;;7.38;81.43
15405;BME280;7801;48.124;11.590;2024-02-23T08:00:51;93831.34;;;7.21;83.21
15405;BME280;7801;48.124;11.590;2024-02-23T08:03:16;93823.44;;;7.38;82.49
15405;BME280;7801;48.124;11.590;2024-02-23T08:05:43;93809.91;;;7.74;80.64
15405;BME280;7801;48.124;11.590;2024-02-23T08:08:08;93809.59;;;7.76;80.20
15405;BME280;7801;48.124;11.590;2024-02-23T08:10:34;93806.03;;;7.80;79.46
15405;BME280;7801;48.124;11.590;2024-02-23T08:12:59;93795.59;;;7.92;78.04
15405;BME280;7801;48.124;11.590;2024-02-23T08:15:25;93788.28;;;7.98;77.54
15405;BME280;7801;48.124;11.590;2024-02-23T08:17:50;93785.34;;;7.91;78.27
15405;BME280;7801;48.124;11.590;2024-02-23T08:20:16;93787.34;;;8.03;77.54
15405;BME280;7801;48.124;11.590;2024-02-23T08:22:41;93796.25;;;7.81;76.15
15405;BME280;7801;48.124;11.590;2024-02-23T08:25:06;93805.91;;;7.59;77.83
15405;BME280;7801;48.124;11.590;2024-02-23T08:27:33;93798.75;;;7.34;80.13
15405;BME280;7801;48.124;11.590;2024-02-23T08:29:58;93774.09;;;7.21;80.30
15405;BME280;7801;48.124;11.590;2024-02-23T08:32:24;93781.22;;;7.21;79.37
15405;BME280;7801;48.124;11.590;2024-02-23T08:34:49;93784.94;;;7.63;78.10
15405;BME280;7801;48.124;11.590;2024-02-23T08:37:15;93780.56;;;7.84;77.67
15405;BME280;7801;48.124;11.590;2024-02-23T08:39:41;93787.88;;;7.62;78.82
15405;BME280;7801;48.124;11.590;2024-02-23T08:42:06;93787.09;;;7.78;78.35
15405;BME280;7801;48.124;11.590;2024-02-23T08:44:31;93785.19;;;7.96;77.87
15405;BME280;7801;48.124;11.590;2024-02-23T08:46:57;93792.94;;;7.92;78.97
15405;BME280;7801;48.124;11.590;2024-02-23T08:49:23;93792.69;;;7.85;78.27
15405;BME280;7801;48.124;11.590;2024-02-23T08:51:49;93794.19;;;8.04;77.25
15405;BME280;7801;48.124;11.590;2024-02-23T08:54:14;93785.09;;;7.67;77.53
15405;BME280;7801;48.124;11.590;2024-02-23T08:56:41;93792.84;;;7.80;76.44
15405;BME280;7801;48.124;11.590;2024-02-23T08:59:08;93820.91;;;7.93;76.23
15405;BME280;7801;48.124;11.590;2024-02-23T09:01:34;93828.00;;;8.19;74.14
15405;BME280;7801;48.124;11.590;2024-02-23T09:04:00;93830.50;;;8.24;73.60
15405;BME280;7801;48.124;11.590;2024-02-23T09:06:25;93832.91;;;7.65;75.51
15405;BME280;7801;48.124;11.590;2024-02-23T09:08:50;93843.63;;;7.60;76.61
15405;BME280;7801;48.124;11.590;2024-02-23T09:11:16;93843.13;;;7.49;77.55
15405;BME280;7801;48.124;11.590;2024-02-23T09:13:41;93846.69;;;7.28;77.34
15405;BME280;7801;48.124;11.590;2024-02-23T09:16:07;93854.16;;;7.43;77.86
15405;BME280;7801;48.124;11.590;2024-02-23T09:18:34;93856.97;;;7.64;76.78
15405;BME280;7801;48.124;11.590;2024-02-23T09:20:59;93875.13;;;7.56;76.04
15405;BME280;7801;48.124;11.590;2024-02-23T09:23:25;93882.06;;;7.27;78.44
15405;BME280;7801;48.124;11.590;2024-02-23T09:25:50;93875.56;;;7.41;77.64
15405;BME280;7801;48.124;11.590;2024-02-23T09:28:15;93867.97;;;7.57;76.38
15405;BME280;7801;48.124;11.590;2024-02-23T09:30:41;93866.44;;;7.47;76.42
15405;BME280;7801;48.124;11.590;2024-02-23T09:33:06;93872.63;;;7.51;76.18
15405;BME280;7801;48.124;11.590;2024-02-23T09:35:31;93872.13;;;7.32;77.62
15405;BME280;7801;48.124;11.590;2024-02-23T09:37:57;93869.81;;;7.39;77.79
15405;BME280;7801;48.124;11.590;2024-02-23T09:40:22;93877.44;;;7.41;77.45
15405;BME280;7801;48.124;11.590;2024-02-23T09:42:56;93880.72;;;7.46;77.44
15405;BME280;7801;48.124;11.590;2024-02-23T09:45:24;93869.81;;;7.31;77.24
15405;BME280;7801;48.124;11.590;2024-02-23T09:47:50;93881.22;;;7.09;78.22
15405;BME280;7801;48.124;11.590;2024-02-23T09:50:17;93877.72;;;7.22;78.37
15405;BME280;7801;48.124;11.590;2024-02-23T09:52:43;93874.34;;;7.56;77.47
15405;BME280;7801;48.124;11.590;2024-02-23T09:55:08;93866.91;;;7.67;77.39
15405;BME280;7801;48.124;11.590;2024-02-23T09:57:34;93859.59;;;7.64;77.79
15405;BME280;7801;48.124;11.590;2024-02-23T10:00:01;93863.16;;;7.85;77.04
15405;BME280;7801;48.124;11.590;2024-02-23T10:02:31;93868.13;;;8.04;75.59
15405;BME280;7801;48.124;11.590;2024-02-23T10:04:58;93871.50;;;8.39;74.41
15405;BME280;7801;48.124;11.590;2024-02-23T10:07:24;93882.03;;;8.56;73.81
15405;BME280;7801;48.124;11.590;2024-02-23T10:12:38;93878.19;;;8.45;72.98
15405;BME280;7801;48.124;11.590;2024-02-23T10:15:04;93883.63;;;8.31;72.67
15405;BME280;7801;48.124;11.590;2024-02-23T10:17:30;93881.63;;;7.50;75.64
15405;BME280;7801;48.124;11.590;2024-02-23T10:19:56;93874.47;;;8.11;73.62
15405;BME280;7801;48.124;11.590;2024-02-23T10:22:23;93874.16;;;8.21;72.84
15405;BME280;7801;48.124;11.590;2024-02-23T10:24:50;93879.16;;;7.71;75.26
15405;BME280;7801;48.124;11.590;2024-02-23T10:27:16;93872.81;;;7.89;75.48
15405;BME280;7801;48.124;11.590;2024-02-23T10:29:41;93864.87;;;7.98;75.89
15405;BME280;7801;48.124;11.590;2024-02-23T10:32:08;93855.41;;;7.63;77.85
15405;BME280;7801;48.124;11.590;2024-02-23T10:34:36;93860.22;;;7.69;77.95
15405;BME280;7801;48.124;11.590;2024-02-23T10:37:04;93849.81;;;7.55;79.06
15405;BME280;7801;48.124;11.590;2024-02-23T10:39:32;93848.28;;;7.46;78.93
15405;BME280;7801;48.124;11.590;2024-02-23T10:42:03;93849.06;;;7.46;79.78
15405;BME280;7801;48.124;11.590;2024-02-23T10:44:29;93855.41;;;7.63;79.59
15405;BME280;7801;48.124;11.590;2024-02-23T10:46:56;93861.00;;;7.87;77.24
15405;BME280;7801;48.124;11.590;2024-02-23T10:49:23;93858.47;;;8.16;76.25
15405;BME280;7801;48.124;11.590;2024-02-23T10:51:54;93859.44;;;7.86;77.32
15405;BME280;7801;48.124;11.590;2024-02-23T10:54:20;93852.91;;;7.57;78.70
15405;BME280;7801;48.124;11.590;2024-02-23T10:56:49;93855.53;;;7.23;79.73
15405;BME280;7801;48.124;11.590;2024-02-23T10:59:19;93861.16;;;7.47;78.68
15405;BME280;7801;48.124;11.590;2024-02-23T11:01:49;93866.75;;;7.89;77.23
15405;BME280;7801;48.124;11.590;2024-02-23T11:04:20;93873.25;;;7.83;77.90
15405;BME280;7801;48.124;11.590;2024-02-23T11:06:54;93877.00;;;7.65;77.94
15405;BME280;7801;48.124;11.590;2024-02-23T11:09:22;93881.03;;;7.88;77.66
15405;BME280;7801;48.124;11.590;2024-02-23T11:11:53;93872.16;;;7.58;77.62
15405;BME280;7801;48.124;11.590;2024-02-23T11:14:34;93871.56;;;7.87;76.99
15405;BME280;7801;48.124;11.590;2024-02-23T11:17:02;93872.31;;;7.79;76.64
15405;BME280;7801;48.124;11.590;2024-02-23T11:19:39;93865.66;;;7.55;76.66
15405;BME280;7801;48.124;11.590;2024-02-23T11:22:05;93864.56;;;7.74;75.48
15405;BME280;7801;48.124;11.590;2024-02-23T11:24:34;93875.13;;;7.65;75.81
15405;BME280;7801;48.124;11.590;2024-02-23T11:27:02;93865.19;;;7.53;75.99
15405;BME280;7801;48.124;11.590;2024-02-23T11:29:36;93860.50;;;8.02;74.25
15405;BME280;7801;48.124;11.590;2024-02-23T11:32:12;93860.53;;;7.68;75.01
15405;BME280;7801;48.124;11.590;2024-02-23T11:34:41;93868.09;;;7.17;76.98
15405;BME280;7801;48.124;11.590;2024-02-23T11:37:11;93865.50;;;7.43;76.59
15405;BME280;7801;48.124;11.590;2024-02-23T11:39:39;93860.50;;;7.33;77.02
15405;BME280;7801;48.124;11.590;2024-02-23T11:42:06;93855.88;;;7.39;76.32
15405;BME280;7801;48.124;11.590;2024-02-23T11:44:32;93848.69;;;7.31;76.90
15405;BME280;7801;48.124;11.590;2024-02-23T11:46:59;93857.87;;;7.42;75.31
15405;BME280;7801;48.124;11.590;2024-02-23T11:49:32;93860.94;;;7.18;75.51
15405;BME280;7801;48.124;11.590;2024-02-23T11:51:58;93860.53;;;7.42;75.69
15405;BME280;7801;48.124;11.590;2024-02-23T11:54:25;93866.69;;;7.20;75.70
15405;BME280;7801;48.124;11.590;2024-02-23T11:56:51;93862.66;;;7.14;77.40
15405;BME280;7801;48.124;11.590;2024-02-23T11:59:24;93875.75;;;6.79;78.21
15405;BME280;7801;48.124;11.590;2024-02-23T12:01:51;93863.53;;;6.92;77.90
15405;BME280;7801;48.124;11.590;2024-02-23T12:04:18;93861.88;;;7.05;76.72
15405;BME280;7801;48.124;11.590;2024-02-23T12:06:44;93850.87;;;7.20;74.41
15405;BME280;7801;48.124;11.590;2024-02-23T12:09:11;93848.41;;;7.32;74.12
15405;BME280;7801;48.124;11.590;2024-02-23T12:11:38;93849.28;;;7.02;74.67
15405;BME280;7801;48.124;11.590;2024-02-23T12:14:05;93856.16;;;7.20;74.26
15405;BME280;7801;48.124;11.590;2024-02-23T12:16:35;93853.06;;;7.27;74.12
15405;BME280;7801;48.124;11.590;2024-02-23T12:19:03;93852.28;;;7.26;73.62
15405;BME280;7801;48.124;11.590;2024-02-23T12:21:29;93862.06;;;7.26;74.55
15405;BME280;7801;48.124;11.590;2024-02-23T12:23:54;93861.34;;;6.85;75.39
15405;BME280;7801;48.124;11.590;2024-02-23T12:26:20;93857.34;;;6.97;75.33
15405;BME280;7801;48.124;11.590;2024-02-23T12:28:47;93855.03;;;7.04;74.58
15405;BME280;7801;48.124;11.590;2024-02-23T12:31:14;93849.66;;;6.69;76.02
15405;BME280;7801;48.124;11.590;2024-02-23T12:33:40;93834.25;;;6.54;76.84
15405;BME280;7801;48.124;11.590;2024-02-23T12:36:14;93830.31;;;6.82;76.05
15405;BME280;7801;48.124;11.590;2024-02-23T12:38:40;93821.38;;;7.09;74.75
15405;BME280;7801;48.124;11.590;2024-02-23T12:41:06;93828.59;;;6.86;75.17
15405;BME280;7801;48.124;11.590;2024-02-23T12:43:33;93829.47;;;7.21;73.33
15405;BME280;7801;48.124;11.590;2024-02-23T12:45:58;93821.06;;;7.11;73.34
15405;BME280;7801;48.124;11.590;2024-02-23T12:48:24;93832.00;;;6.78;73.39
15405;BME280;7801;48.124;11.590;2024-02-23T12:50:51;93833.72;;;6.74;75.43
15405;BME280;7801;48.124;11.590;2024-02-23T12:53:36;93832.75;;;6.70;74.19
15405;BME280;7801;48.124;11.590;2024-02-23T12:56:04;93853.44;;;6.94;73.73
15405;BME280;7801;48.124;11.590;2024-02-23T12:58:31;93832.88;;;7.22;71.51
15405;BME280;7801;48.124;11.590;2024-02-23T13:00:56;93826.19;;;6.99;71.96
15405;BME280;7801;48.124;11.590;2024-02-23T13:03:25;93809.81;;;6.62;72.77
15405;BME280;7801;48.124;11.590;2024-02-23T13:05:56;93804.16;;;7.03;71.72